createdAt,value
2017-11-20T00:02:35.333Z,3.37
2017-11-20T00:05:40.405Z,3.20
2017-11-20T00:08:46.156Z,2.80
2017-11-20T00:11:51.332Z,3.40
2017-11-20T00:14:56.288Z,3.50
2017-11-20T00:18:01.653Z,3.13
2017-11-20T00:21:06.885Z,3.80
2017-11-20T00:24:12.030Z,4.10
2017-11-20T00:27:18.102Z,4.73
2017-11-20T00:30:23.142Z,3.43
2017-11-20T00:33:27.840Z,3.80
2017-11-20T00:36:33.493Z,3.83
2017-11-20T00:39:38.622Z,3.77
2017-11-20T00:42:43.786Z,4.10
2017-11-20T00:45:49.754Z,4.40
2017-11-20T00:48:54.740Z,4.17
2017-11-20T00:52:01.439Z,4.93
2017-11-20T00:55:06.394Z,5.17
2017-11-20T00:58:12.793Z,5.93
2017-11-20T01:01:17.815Z,5.10
2017-11-20T01:04:23.341Z,5.23
2017-11-20T01:07:29.220Z,5.83
2017-11-20T01:10:34.772Z,5.20
2017-11-20T01:13:39.953Z,5.37
2017-11-20T01:16:45.668Z,4.87
2017-11-20T01:19:51.254Z,4.13
2017-11-20T01:22:57.282Z,5.50
2017-11-20T01:26:02.808Z,5.37
2017-11-20T01:29:08.698Z,5.43
2017-11-20T01:32:15.022Z,5.80
2017-11-20T01:35:20.635Z,5.90
2017-11-20T01:38:26.920Z,5.50
2017-11-20T01:41:32.422Z,5.10
2017-11-20T01:44:37.771Z,5.40
2017-11-20T01:47:44.158Z,5.47
2017-11-20T01:50:49.635Z,5.63
2017-11-20T01:53:55.488Z,4.87
2017-11-20T01:57:00.425Z,6.53
2017-11-20T02:00:05.381Z,5.00
2017-11-20T02:03:16.570Z,4.70
2017-11-20T02:06:21.906Z,5.17
2017-11-20T02:09:27.704Z,5.23
2017-11-20T02:12:35.948Z,6.60
2017-11-20T02:15:41.297Z,5.13
2017-11-20T02:18:46.720Z,7.03
2017-11-20T02:21:52.137Z,5.80
2017-11-20T02:24:57.671Z,5.80
2017-11-20T02:28:03.265Z,5.40
2017-11-20T02:31:08.597Z,5.70
2017-11-20T02:34:14.154Z,5.07
2017-11-20T02:37:19.422Z,5.90
2017-11-20T02:40:24.784Z,5.90
2017-11-20T02:43:30.076Z,6.17
2017-11-20T02:46:35.713Z,6.20
2017-11-20T02:49:41.181Z,5.53
2017-11-20T02:52:46.421Z,5.70
2017-11-20T02:55:51.807Z,5.50
2017-11-20T02:58:58.608Z,5.40
2017-11-20T03:02:04.273Z,5.30
2017-11-20T03:05:09.856Z,5.67
2017-11-20T03:08:15.609Z,4.60
2017-11-20T03:11:20.647Z,5.47
2017-11-20T03:14:26.860Z,5.63
2017-11-20T03:17:31.736Z,5.23
2017-11-20T03:20:36.751Z,5.73
2017-11-20T03:23:41.568Z,4.77
2017-11-20T03:26:47.064Z,5.90
2017-11-20T03:29:52.720Z,6.43
2017-11-20T03:32:58.601Z,5.80
2017-11-20T03:36:04.376Z,5.37
2017-11-20T03:39:09.187Z,5.70
2017-11-20T03:42:15.480Z,5.90
2017-11-20T03:45:20.940Z,6.43
2017-11-20T03:48:26.476Z,5.80
2017-11-20T03:51:31.547Z,5.80
2017-11-20T03:54:36.389Z,5.70
2017-11-20T03:57:41.956Z,5.67
2017-11-20T04:00:47.843Z,5.40
2017-11-20T04:03:52.808Z,6.87
2017-11-20T04:06:58.372Z,5.70
2017-11-20T04:10:04.057Z,7.90
2017-11-20T04:13:09.700Z,9.07
2017-11-20T04:16:15.256Z,6.60
2017-11-20T04:19:20.122Z,9.83
2017-11-20T04:22:25.603Z,9.33
2017-11-20T04:25:31.067Z,6.93
2017-11-20T04:28:37.524Z,5.90
2017-11-20T04:31:43.108Z,6.10
2017-11-20T04:34:48.726Z,6.00
2017-11-20T04:37:53.812Z,6.00
2017-11-20T04:40:59.672Z,5.60
2017-11-20T04:44:05.289Z,5.47
2017-11-20T04:47:10.479Z,6.53
2017-11-20T04:50:18.249Z,6.20
2017-11-20T04:53:24.226Z,5.53
2017-11-20T04:56:29.673Z,6.53
2017-11-20T04:59:34.708Z,7.20
2017-11-20T05:02:40.977Z,6.10
2017-11-20T05:05:46.464Z,6.40
2017-11-20T05:08:51.652Z,6.47
2017-11-20T05:11:56.484Z,6.70
2017-11-20T05:15:02.173Z,7.20
2017-11-20T05:18:07.384Z,6.20
2017-11-20T05:21:12.982Z,9.50
2017-11-20T05:24:18.072Z,7.07
2017-11-20T05:27:23.553Z,9.00
2017-11-20T05:30:29.251Z,30.90
2017-11-20T05:33:34.732Z,33.33
2017-11-20T05:36:39.909Z,18.27
2017-11-20T05:39:45.196Z,12.60
2017-11-20T05:42:50.086Z,6.50
2017-11-20T05:45:55.648Z,7.90
2017-11-20T05:49:00.607Z,7.60
2017-11-20T05:52:05.683Z,6.27
2017-11-20T05:55:10.624Z,6.80
2017-11-20T05:58:15.624Z,8.00
2017-11-20T06:01:21.188Z,8.60
2017-11-20T06:04:29.786Z,9.70
2017-11-20T06:07:34.916Z,8.40
2017-11-20T06:10:40.645Z,6.37
2017-11-20T06:13:55.327Z,7.67
2017-11-20T06:17:04.234Z,6.10
2017-11-20T06:20:10.407Z,6.27
2017-11-20T06:23:16.705Z,7.63
2017-11-20T06:26:22.258Z,6.37
2017-11-20T06:29:28.649Z,7.77
2017-11-20T06:32:39.637Z,16.43
2017-11-20T06:35:44.397Z,10.13
2017-11-20T06:38:51.454Z,7.33
2017-11-20T06:41:57.710Z,6.67
2017-11-20T06:45:04.407Z,6.57
2017-11-20T06:48:10.321Z,6.50
2017-11-20T06:51:15.206Z,6.63
2017-11-20T06:54:20.220Z,6.73
2017-11-20T06:57:25.061Z,6.47
2017-11-20T07:00:33.536Z,6.90
2017-11-20T07:03:38.380Z,6.90
2017-11-20T07:06:47.154Z,7.03
2017-11-20T07:09:53.189Z,6.87
2017-11-20T07:12:58.011Z,7.07
2017-11-20T07:16:03.379Z,6.40
2017-11-20T07:19:09.205Z,7.80
2017-11-20T07:22:17.899Z,7.73
2017-11-20T07:25:29.253Z,7.07
2017-11-20T07:28:41.392Z,6.73
2017-11-20T07:31:52.093Z,7.50
2017-11-20T07:35:10.062Z,7.03
2017-11-20T07:38:28.954Z,7.07
2017-11-20T07:45:10.698Z,6.90
2017-11-20T07:48:16.675Z,6.80
2017-11-20T07:51:22.608Z,6.30
2017-11-20T07:54:28.393Z,6.73
2017-11-20T07:57:34.216Z,7.10
2017-11-20T08:00:38.885Z,7.07
2017-11-20T08:03:44.186Z,7.20
2017-11-20T08:06:48.853Z,6.53
2017-11-20T08:09:54.497Z,6.33
2017-11-20T08:13:00.272Z,6.30
2017-11-20T08:16:05.218Z,6.30
2017-11-20T08:19:10.077Z,7.10
2017-11-20T08:22:15.394Z,6.47
2017-11-20T08:25:26.472Z,5.93
2017-11-20T08:28:31.583Z,5.73
2017-11-20T08:31:37.435Z,6.33
2017-11-20T08:34:42.590Z,6.83
2017-11-20T08:37:47.948Z,7.13
2017-11-20T08:40:53.432Z,6.80
2017-11-20T08:44:00.021Z,6.30
2017-11-20T08:47:06.011Z,5.77
2017-11-20T08:50:11.669Z,6.70
2017-11-20T08:53:18.128Z,5.47
2017-11-20T08:56:23.428Z,6.90
2017-11-20T08:59:28.517Z,6.90
2017-11-20T09:02:33.494Z,7.80
2017-11-20T09:05:38.657Z,7.80
2017-11-20T09:08:45.280Z,6.83
2017-11-20T09:11:51.374Z,6.27
2017-11-20T09:14:56.473Z,7.07
2017-11-20T09:18:04.122Z,8.07
2017-11-20T09:21:13.993Z,7.90
2017-11-20T09:24:20.261Z,7.67
2017-11-20T09:27:25.729Z,5.53
2017-11-20T09:30:32.300Z,8.47
2017-11-20T09:33:38.119Z,5.50
2017-11-20T09:36:43.241Z,6.87
2017-11-20T09:39:50.519Z,7.47
2017-11-20T09:42:56.725Z,8.10
2017-11-20T09:46:03.761Z,6.73
2017-11-20T09:49:08.991Z,8.57
2017-11-20T09:52:14.865Z,6.20
2017-11-20T09:55:19.873Z,7.70
2017-11-20T09:58:27.921Z,7.63
2017-11-20T10:01:33.472Z,8.40
2017-11-20T10:04:38.552Z,5.80
2017-11-20T10:07:44.340Z,8.03
2017-11-20T10:10:49.269Z,6.80
2017-11-20T10:13:55.305Z,6.20
2017-11-20T10:17:01.526Z,6.50
2017-11-20T10:20:07.689Z,7.17
2017-11-20T10:23:13.129Z,7.17
2017-11-20T10:26:18.241Z,7.17
2017-11-20T10:29:23.797Z,6.63
2017-11-20T10:32:29.757Z,5.43
2017-11-20T10:35:35.021Z,6.47
2017-11-20T10:38:40.011Z,6.13
2017-11-20T10:41:47.465Z,6.10
2017-11-20T10:44:53.557Z,6.73
2017-11-20T10:47:59.293Z,6.87
2017-11-20T10:51:04.623Z,6.07
2017-11-20T10:54:10.989Z,7.60
2017-11-20T10:57:18.893Z,7.00
2017-11-20T11:00:24.852Z,7.10
2017-11-20T11:03:33.651Z,6.40
2017-11-20T11:06:39.373Z,7.07
2017-11-20T11:09:50.531Z,6.47
2017-11-20T11:12:55.605Z,7.47
2017-11-20T11:16:12.893Z,6.80
2017-11-20T11:19:26.829Z,7.33
2017-11-20T11:22:31.943Z,7.40
2017-11-20T11:25:37.054Z,7.50
2017-11-20T11:28:42.315Z,6.80
2017-11-20T11:31:47.460Z,6.97
2017-11-20T11:34:53.193Z,5.27
2017-11-20T11:37:59.931Z,7.00
2017-11-20T11:41:05.372Z,6.87
2017-11-20T11:44:12.357Z,7.33
2017-11-20T11:47:17.924Z,7.30
2017-11-20T11:50:23.256Z,7.83
2017-11-20T11:53:31.323Z,7.00
2017-11-20T11:56:36.508Z,6.63
2017-11-20T11:59:41.188Z,7.60
2017-11-20T12:02:49.464Z,7.50
2017-11-20T12:05:55.108Z,7.40
2017-11-20T12:09:03.765Z,6.80
2017-11-20T12:12:08.628Z,6.13
2017-11-20T12:15:14.133Z,7.03
2017-11-20T12:18:19.476Z,8.17
2017-11-20T12:21:25.089Z,5.50
2017-11-20T12:24:30.793Z,7.63
2017-11-20T12:27:36.545Z,7.43
2017-11-20T12:30:41.976Z,7.30
2017-11-20T12:33:47.772Z,7.40
2017-11-20T12:36:54.354Z,7.43
2017-11-20T12:40:00.661Z,8.30
2017-11-20T12:43:05.752Z,7.73
2017-11-20T12:46:11.080Z,7.60
2017-11-20T12:49:26.868Z,7.40
2017-11-20T12:52:38.264Z,9.10
2017-11-20T12:55:43.340Z,9.00
2017-11-20T12:58:48.986Z,9.13
2017-11-20T13:01:53.941Z,9.10
2017-11-20T13:04:58.885Z,8.03
2017-11-20T13:08:03.924Z,9.00
2017-11-20T13:11:16.205Z,8.30
2017-11-20T13:14:21.525Z,8.63
2017-11-20T13:17:29.512Z,9.07
2017-11-20T13:20:37.037Z,9.50
2017-11-20T13:23:43.441Z,9.60
2017-11-20T13:26:48.934Z,9.03
2017-11-20T13:29:55.633Z,8.73
2017-11-20T13:33:01.450Z,8.70
2017-11-20T13:36:06.307Z,8.80
2017-11-20T13:39:15.930Z,8.87
2017-11-20T13:42:23.801Z,8.27
2017-11-20T13:45:28.657Z,10.20
2017-11-20T13:48:35.174Z,8.40
2017-11-20T13:51:41.297Z,9.07
2017-11-20T13:54:47.100Z,9.00
2017-11-20T13:57:52.582Z,8.10
2017-11-20T14:00:57.429Z,9.93
2017-11-20T14:04:05.641Z,8.80
2017-11-20T14:07:11.734Z,9.40
2017-11-20T14:10:16.969Z,8.93
2017-11-20T14:13:22.166Z,9.50
2017-11-20T14:16:27.973Z,8.30
2017-11-20T14:19:33.014Z,8.97
2017-11-20T14:22:38.296Z,9.53
2017-11-20T14:25:43.141Z,8.60
2017-11-20T14:28:48.917Z,9.60
2017-11-20T14:31:54.616Z,10.03
2017-11-20T14:34:59.934Z,8.23
2017-11-20T14:38:05.132Z,8.60
2017-11-20T14:41:10.692Z,7.63
2017-11-20T14:44:15.647Z,9.87
2017-11-20T14:47:21.694Z,10.30
2017-11-20T14:50:27.380Z,9.83
2017-11-20T14:53:40.608Z,9.00
2017-11-20T14:56:49.415Z,10.00
2017-11-20T14:59:57.804Z,9.20
2017-11-20T15:03:06.447Z,9.27
2017-11-20T15:06:14.550Z,8.90
2017-11-20T15:09:20.242Z,9.53
2017-11-20T15:12:25.252Z,10.70
2017-11-20T15:15:43.088Z,10.87
2017-11-20T15:18:48.804Z,10.90
2017-11-20T15:21:53.885Z,11.20
2017-11-20T15:24:59.444Z,11.63
2017-11-20T15:28:04.980Z,11.27
2017-11-20T15:31:11.356Z,11.70
2017-11-20T15:34:16.380Z,11.90
2017-11-20T15:37:21.817Z,10.90
2017-11-20T15:40:26.977Z,12.07
2017-11-20T15:43:32.016Z,12.30
2017-11-20T15:46:37.917Z,11.87
2017-11-20T15:49:43.275Z,13.10
2017-11-20T15:52:49.624Z,12.83
2017-11-20T15:55:56.031Z,11.50
2017-11-20T15:59:02.349Z,11.47
2017-11-20T16:02:07.236Z,12.50
2017-11-20T16:05:12.436Z,12.17
2017-11-20T16:08:17.228Z,12.00
2017-11-20T16:11:22.410Z,12.40
2017-11-20T16:14:28.080Z,12.33
2017-11-20T16:17:33.322Z,12.87
2017-11-20T16:20:39.402Z,13.20
2017-11-20T16:23:46.200Z,12.83
2017-11-20T16:26:51.520Z,13.10
2017-11-20T16:29:56.868Z,13.20
2017-11-20T16:33:02.237Z,12.90
2017-11-20T16:36:07.552Z,12.53
2017-11-20T16:39:12.972Z,13.10
2017-11-20T16:42:18.074Z,12.57
2017-11-20T16:45:24.500Z,7.80
2017-11-20T16:48:29.518Z,12.13
2017-11-20T16:51:34.867Z,12.90
2017-11-20T16:54:45.913Z,11.53
2017-11-20T16:58:04.907Z,11.20
2017-11-20T17:01:10.700Z,10.90
2017-11-20T17:04:17.200Z,10.90
2017-11-20T17:07:22.750Z,11.70
2017-11-20T17:10:27.648Z,10.50
2017-11-20T17:13:32.983Z,9.90
2017-11-20T17:16:38.746Z,10.30
2017-11-20T17:19:44.429Z,11.33
2017-11-20T17:22:50.118Z,7.60
2017-11-20T17:25:58.521Z,6.07
2017-11-20T17:29:06.474Z,11.23
2017-11-20T17:32:11.837Z,11.50
2017-11-20T17:35:17.241Z,10.70
2017-11-20T17:38:22.095Z,11.20
2017-11-20T17:41:27.060Z,7.30
2017-11-20T17:44:32.224Z,10.43
2017-11-20T17:47:37.698Z,11.50
2017-11-20T17:50:42.921Z,11.27
2017-11-20T17:56:38.896Z,11.73
2017-11-20T17:59:44.509Z,11.00
2017-11-20T18:02:50.216Z,13.53
2017-11-20T18:05:55.088Z,11.87
2017-11-20T18:09:00.677Z,10.00
2017-11-20T18:12:05.213Z,10.73
2017-11-20T18:15:11.878Z,12.90
2017-11-20T18:18:17.324Z,11.47
2017-11-20T18:21:22.600Z,11.33
2017-11-20T18:24:27.356Z,12.83
2017-11-20T18:27:32.270Z,12.03
2017-11-20T18:30:37.046Z,10.57
2017-11-20T18:33:43.064Z,8.60
2017-11-20T18:36:54.026Z,11.70
2017-11-20T18:40:00.371Z,12.40
2017-11-20T18:43:05.584Z,11.77
2017-11-20T18:46:18.316Z,10.10
2017-11-20T18:49:23.432Z,11.17
2017-11-20T18:52:28.716Z,9.80
2017-11-20T18:55:35.045Z,9.27
2017-11-20T18:58:41.838Z,11.40
2017-11-20T19:02:00.053Z,9.97
2017-11-20T19:05:15.969Z,10.20
2017-11-20T19:08:34.661Z,10.17
2017-11-20T19:11:39.668Z,10.30
2017-11-20T19:14:45.513Z,10.63
2017-11-20T19:17:50.701Z,7.50
2017-11-20T19:20:58.092Z,11.10
2017-11-20T19:24:02.962Z,8.33
2017-11-20T19:27:08.205Z,8.07
2017-11-20T19:30:18.022Z,9.03
2017-11-20T19:33:23.032Z,10.17
2017-11-20T19:36:28.673Z,10.73
2017-11-20T19:39:33.528Z,12.53
2017-11-20T19:42:39.698Z,9.73
2017-11-20T19:45:46.237Z,7.97
2017-11-20T19:48:51.460Z,11.33
2017-11-20T19:51:56.462Z,9.87
2017-11-20T19:55:01.222Z,8.97
2017-11-20T19:58:07.112Z,12.30
2017-11-20T20:01:14.446Z,10.87
2017-11-20T20:04:19.773Z,11.73
2017-11-20T20:07:24.851Z,10.23
2017-11-20T20:10:30.376Z,10.40
2017-11-20T20:13:42.650Z,10.47
2017-11-20T20:16:55.251Z,9.60
2017-11-20T20:20:00.918Z,10.10
2017-11-20T20:23:05.648Z,11.30
2017-11-20T20:26:11.700Z,12.20
2017-11-20T20:29:18.560Z,10.43
2017-11-20T20:32:23.482Z,10.20
2017-11-20T20:35:29.410Z,9.60
2017-11-20T20:38:34.351Z,10.80
2017-11-20T20:41:41.607Z,10.10
2017-11-20T20:44:46.683Z,10.50
2017-11-20T20:47:52.115Z,10.90
2017-11-20T20:50:57.692Z,9.33
2017-11-20T20:54:03.318Z,9.63
2017-11-20T20:57:09.517Z,11.07
2017-11-20T21:00:15.937Z,9.80
2017-11-20T21:03:20.774Z,10.90
2017-11-20T21:06:27.817Z,9.90
2017-11-20T21:09:33.434Z,10.20
2017-11-20T21:12:38.777Z,10.30
2017-11-20T21:15:44.829Z,11.37
2017-11-20T21:18:50.096Z,9.57
2017-11-20T21:21:55.618Z,10.90
2017-11-20T21:25:00.637Z,11.00
2017-11-20T21:28:05.749Z,10.07
2017-11-20T21:31:15.243Z,9.60
2017-11-20T21:34:24.237Z,10.43
2017-11-20T21:37:29.408Z,9.40
2017-11-20T21:40:34.616Z,6.33
2017-11-20T21:43:40.074Z,9.47
2017-11-20T21:46:45.909Z,9.93
2017-11-20T21:49:55.821Z,9.77
2017-11-20T21:53:00.825Z,9.57
2017-11-20T21:56:06.251Z,10.47
2017-11-20T21:59:13.106Z,9.70
2017-11-20T22:02:26.408Z,9.43
2017-11-20T22:05:31.938Z,9.80
2017-11-20T22:08:37.334Z,10.50
2017-11-20T22:11:44.877Z,10.10
2017-11-20T22:14:49.820Z,9.37
2017-11-20T22:17:54.684Z,7.20
2017-11-20T22:21:00.258Z,9.50
2017-11-20T22:24:13.010Z,8.13
2017-11-20T22:27:24.768Z,9.67
2017-11-20T22:30:42.740Z,10.10
2017-11-20T22:33:52.457Z,10.60
2017-11-20T22:37:07.706Z,10.73
2017-11-20T22:40:14.668Z,12.50
2017-11-20T22:43:20.613Z,11.60
2017-11-20T22:46:25.236Z,11.23
2017-11-20T22:49:33.248Z,11.00
2017-11-20T22:52:49.308Z,9.90
2017-11-20T22:55:54.620Z,11.13
2017-11-20T22:59:00.202Z,10.10
2017-11-20T23:02:12.094Z,9.97
2017-11-20T23:05:18.724Z,10.27
2017-11-20T23:08:23.832Z,9.87
2017-11-20T23:11:30.105Z,10.80
2017-11-20T23:14:36.738Z,10.67
2017-11-20T23:17:41.761Z,9.73
2017-11-20T23:20:47.333Z,8.90
2017-11-20T23:23:52.579Z,8.40
2017-11-20T23:27:11.893Z,9.47
2017-11-20T23:30:33.413Z,8.50
2017-11-20T23:33:38.594Z,9.03
2017-11-20T23:36:44.042Z,9.00
2017-11-20T23:39:48.845Z,9.87
2017-11-20T23:42:54.246Z,9.47
2017-11-20T23:46:01.726Z,10.33
2017-11-20T23:49:30.697Z,9.17
2017-11-20T23:52:36.348Z,9.40
2017-11-20T23:55:42.225Z,8.80
2017-11-20T23:58:47.569Z,9.40
